Terminal Aerodrome Forecast
Issued by NWS

Home | Current Version | Previous Version | Text Only | Print | Product List | Glossary On
Versions: 1 2 3 4 5 6 7 8 9 10 11 12 13 14 15 16 17 18 19 20
000
FTUS44 KTSA 191603 AAB
TAFRVS
TAF AMD
KRVS 191603Z 1916/2012 16005KT 6SM BR OVC007
     FM191900 17011G17KT P6SM OVC015
     FM192300 15010KT P6SM SCT025
     FM200200 15010KT 4SM BR VCSH BKN020
     FM200600 15010KT 4SM BR VCTS OVC015CB
      TEMPO 2006/2010 2SM -TSRA OVC007CB=

USA.gov is the U.S. government's official web portal to all federal, state and local government web resources and services.